createdAt,value
2017-12-22T00:00:35.224Z,33.70
2017-12-22T00:03:02.637Z,26.97
2017-12-22T00:05:30.086Z,36.13
2017-12-22T00:07:57.509Z,30.17
2017-12-22T00:10:24.929Z,32.40
2017-12-22T00:12:52.370Z,33.17
2017-12-22T00:15:19.794Z,29.97
2017-12-22T00:17:56.432Z,33.43
2017-12-22T00:20:23.886Z,29.97
2017-12-22T00:22:51.345Z,31.10
2017-12-22T00:25:18.749Z,28.60
2017-12-22T00:27:46.203Z,31.57
2017-12-22T00:30:13.624Z,31.67
2017-12-22T00:32:41.042Z,31.80
2017-12-22T00:35:08.462Z,28.37
2017-12-22T00:37:35.898Z,31.23
2017-12-22T00:40:03.337Z,30.63
2017-12-22T00:42:30.758Z,29.87
2017-12-22T00:44:58.233Z,29.17
2017-12-22T00:47:25.698Z,31.07
2017-12-22T00:49:53.105Z,29.73
2017-12-22T00:52:20.577Z,30.00
2017-12-22T00:54:47.993Z,27.53
2017-12-22T00:57:15.405Z,29.37
2017-12-22T00:59:42.826Z,33.00
2017-12-22T01:02:10.269Z,33.20
2017-12-22T01:04:37.697Z,31.80
2017-12-22T01:07:05.116Z,31.20
2017-12-22T01:09:32.545Z,31.90
2017-12-22T01:11:59.971Z,30.10
2017-12-22T01:14:27.413Z,26.63
2017-12-22T01:17:00.391Z,26.17
2017-12-22T01:19:27.803Z,24.77
2017-12-22T01:21:55.233Z,29.97
2017-12-22T01:24:22.747Z,32.73
2017-12-22T01:26:50.149Z,29.93
2017-12-22T01:29:17.565Z,28.90
2017-12-22T01:31:44.991Z,32.33
2017-12-22T01:34:12.413Z,33.50
2017-12-22T01:36:39.853Z,37.13
2017-12-22T01:39:07.288Z,32.23
2017-12-22T01:41:34.749Z,30.63
2017-12-22T01:44:02.161Z,29.97
2017-12-22T01:46:29.603Z,32.37
2017-12-22T01:48:57.075Z,29.87
2017-12-22T01:51:24.508Z,29.07
2017-12-22T01:53:51.998Z,28.73
2017-12-22T01:56:19.402Z,29.03
2017-12-22T01:58:46.837Z,29.60
2017-12-22T02:01:14.289Z,30.27
2017-12-22T02:03:41.705Z,30.20
2017-12-22T02:06:09.133Z,30.03
2017-12-22T02:08:36.582Z,30.30
2017-12-22T02:11:04.014Z,28.50
2017-12-22T02:13:31.433Z,29.93
2017-12-22T02:15:58.893Z,27.80
2017-12-22T02:18:26.314Z,30.30
2017-12-22T02:20:53.769Z,29.30
2017-12-22T02:23:21.343Z,27.17
2017-12-22T02:25:48.753Z,27.97
2017-12-22T02:28:16.198Z,26.43
2017-12-22T02:30:43.623Z,28.13
2017-12-22T02:33:11.065Z,28.80
2017-12-22T02:35:38.500Z,28.47
2017-12-22T02:38:05.945Z,30.00
2017-12-22T02:40:33.362Z,28.30
2017-12-22T02:43:00.791Z,27.37
2017-12-22T02:45:28.214Z,26.83
2017-12-22T02:47:55.631Z,26.70
2017-12-22T02:50:23.040Z,26.23
2017-12-22T02:52:50.485Z,29.13
2017-12-22T02:55:17.895Z,27.80
2017-12-22T02:57:45.318Z,26.00
2017-12-22T03:00:12.776Z,27.30
2017-12-22T03:02:40.207Z,26.20
2017-12-22T03:05:07.643Z,26.20
2017-12-22T03:07:35.086Z,26.63
2017-12-22T03:10:02.516Z,25.50
2017-12-22T03:12:29.961Z,26.17
2017-12-22T03:14:57.424Z,26.40
2017-12-22T03:17:24.837Z,26.23
2017-12-22T03:19:52.266Z,25.07
2017-12-22T03:22:19.697Z,25.10
2017-12-22T03:24:47.127Z,24.93
2017-12-22T03:27:14.538Z,23.17
2017-12-22T03:29:41.977Z,23.47
2017-12-22T03:32:09.389Z,23.73
2017-12-22T03:34:36.823Z,23.50
2017-12-22T03:37:04.277Z,23.13
2017-12-22T03:39:31.681Z,22.70
2017-12-22T03:41:59.113Z,20.70
2017-12-22T03:44:26.553Z,21.47
2017-12-22T03:46:53.978Z,21.20
2017-12-22T03:49:21.429Z,23.47
2017-12-22T03:51:48.869Z,21.70
2017-12-22T03:54:16.318Z,20.93
2017-12-22T03:56:43.729Z,22.97
2017-12-22T03:59:11.145Z,20.27
2017-12-22T04:01:38.554Z,20.60
2017-12-22T04:04:05.973Z,20.60
2017-12-22T04:06:33.411Z,19.67
2017-12-22T04:09:00.838Z,19.40
2017-12-22T04:11:28.240Z,18.47
2017-12-22T04:13:55.703Z,19.20
2017-12-22T04:16:23.176Z,20.07
2017-12-22T04:18:50.597Z,19.63
2017-12-22T04:21:18.021Z,18.40
2017-12-22T04:23:45.470Z,19.77
2017-12-22T04:26:12.889Z,17.90
2017-12-22T04:28:40.326Z,18.40
2017-12-22T04:31:07.733Z,18.10
2017-12-22T04:33:35.145Z,17.43
2017-12-22T04:36:02.673Z,17.43
2017-12-22T04:38:30.181Z,17.43
2017-12-22T04:40:57.606Z,17.67
2017-12-22T04:43:25.210Z,17.13
2017-12-22T04:45:52.619Z,14.97
2017-12-22T04:48:20.025Z,16.80
2017-12-22T04:50:47.550Z,15.37
2017-12-22T04:53:14.961Z,15.37
2017-12-22T04:55:42.378Z,15.77
2017-12-22T04:58:09.806Z,16.27
2017-12-22T05:00:37.234Z,15.63
2017-12-22T05:03:04.653Z,15.20
2017-12-22T05:05:32.183Z,15.50
2017-12-22T05:07:59.601Z,15.37
2017-12-22T05:10:27.029Z,15.30
2017-12-22T05:12:54.481Z,14.57
2017-12-22T05:15:21.904Z,14.53
2017-12-22T05:17:49.329Z,14.17
2017-12-22T05:20:16.785Z,14.70
2017-12-22T05:22:44.233Z,15.43
2017-12-22T05:25:11.670Z,14.13
2017-12-22T05:27:39.096Z,14.40
2017-12-22T05:30:06.510Z,13.27
2017-12-22T05:32:33.941Z,13.67
2017-12-22T05:35:01.389Z,13.77
2017-12-22T05:37:28.824Z,13.47
2017-12-22T05:39:56.260Z,13.43
2017-12-22T05:42:23.706Z,12.70
2017-12-22T05:44:51.125Z,12.10
2017-12-22T05:47:18.592Z,12.40
2017-12-22T05:49:46.017Z,12.10
2017-12-22T05:52:13.454Z,12.23
2017-12-22T05:54:40.878Z,12.70
2017-12-22T05:57:08.341Z,12.50
2017-12-22T05:59:35.753Z,12.40
2017-12-22T06:02:03.173Z,12.77
2017-12-22T06:04:30.633Z,13.17
2017-12-22T06:06:58.056Z,12.67
2017-12-22T06:09:25.469Z,12.50
2017-12-22T06:11:52.893Z,13.20
2017-12-22T06:14:20.306Z,12.70
2017-12-22T06:16:48.633Z,12.33
2017-12-22T06:19:16.145Z,12.60
2017-12-22T06:21:43.552Z,12.60
2017-12-22T06:24:10.969Z,13.00
2017-12-22T06:26:38.417Z,12.07
2017-12-22T06:29:05.841Z,11.83
2017-12-22T06:31:33.244Z,12.20
2017-12-22T06:34:00.760Z,11.80
2017-12-22T06:36:28.224Z,11.50
2017-12-22T06:38:55.640Z,12.07
2017-12-22T06:41:24.992Z,12.33
2017-12-22T06:43:52.399Z,12.10
2017-12-22T06:46:19.831Z,12.93
2017-12-22T06:48:47.257Z,12.00
2017-12-22T06:51:14.705Z,12.40
2017-12-22T06:53:42.134Z,11.73
2017-12-22T06:56:09.581Z,11.93
2017-12-22T06:58:36.992Z,12.30
2017-12-22T07:01:04.401Z,11.40
2017-12-22T07:03:31.926Z,12.10
2017-12-22T07:05:59.351Z,12.30
2017-12-22T07:08:27.422Z,12.90
2017-12-22T07:10:54.950Z,12.53
2017-12-22T07:13:22.401Z,12.40
2017-12-22T07:15:49.877Z,12.50
2017-12-22T07:18:17.366Z,12.47
2017-12-22T07:20:44.755Z,12.27
2017-12-22T07:23:12.185Z,12.47
2017-12-22T07:25:39.666Z,12.57
2017-12-22T07:28:07.067Z,12.07
2017-12-22T07:30:34.520Z,12.70
2017-12-22T07:33:01.959Z,12.60
2017-12-22T07:35:29.381Z,11.30
2017-12-22T07:37:56.831Z,12.07
2017-12-22T07:40:24.293Z,11.87
2017-12-22T07:42:51.709Z,11.90
2017-12-22T07:45:19.118Z,11.40
2017-12-22T07:47:46.573Z,13.10
2017-12-22T07:50:13.989Z,12.10
2017-12-22T07:52:41.408Z,12.93
2017-12-22T07:55:08.862Z,11.80
2017-12-22T07:57:36.287Z,11.53
2017-12-22T08:00:03.716Z,11.00
2017-12-22T08:02:31.188Z,11.90
2017-12-22T08:04:58.607Z,10.60
2017-12-22T08:07:26.017Z,12.07
2017-12-22T08:09:53.482Z,10.10
2017-12-22T08:12:20.890Z,12.00
2017-12-22T08:14:48.321Z,11.20
2017-12-22T08:17:15.783Z,11.67
2017-12-22T08:19:43.181Z,12.07
2017-12-22T08:22:10.613Z,11.80
2017-12-22T08:24:38.065Z,12.90
2017-12-22T08:27:05.473Z,13.10
2017-12-22T08:29:32.885Z,13.20
2017-12-22T08:32:00.333Z,12.30
2017-12-22T08:34:27.761Z,11.60
2017-12-22T08:36:55.181Z,11.40
2017-12-22T08:39:22.665Z,12.53
2017-12-22T08:41:50.095Z,11.50
2017-12-22T08:44:17.513Z,13.03
2017-12-22T08:46:44.973Z,13.23
2017-12-22T08:49:12.405Z,12.97
2017-12-22T08:51:39.874Z,12.07
2017-12-22T08:54:07.294Z,12.10
2017-12-22T08:56:34.722Z,11.40
2017-12-22T08:59:02.141Z,12.93
2017-12-22T09:01:29.589Z,12.80
2017-12-22T09:03:57.010Z,12.20
2017-12-22T09:06:24.629Z,12.27
2017-12-22T09:08:52.057Z,12.87
2017-12-22T09:11:19.494Z,13.23
2017-12-22T09:13:46.924Z,12.53
2017-12-22T09:16:14.341Z,13.30
2017-12-22T09:18:41.773Z,13.93
2017-12-22T09:21:09.241Z,14.23
2017-12-22T09:23:36.697Z,14.07
2017-12-22T09:26:04.153Z,12.20
2017-12-22T09:28:31.570Z,12.33
2017-12-22T09:30:58.992Z,12.67
2017-12-22T09:33:26.409Z,11.80
2017-12-22T09:35:53.837Z,13.20
2017-12-22T09:38:21.441Z,12.73
2017-12-22T09:40:48.871Z,13.70
2017-12-22T09:43:16.313Z,13.93
2017-12-22T09:45:43.887Z,14.33
2017-12-22T09:48:11.254Z,13.47
2017-12-22T09:50:38.695Z,14.23
2017-12-22T09:53:06.133Z,14.63
2017-12-22T09:55:33.553Z,15.30
2017-12-22T09:58:01.002Z,14.77
2017-12-22T10:00:28.451Z,16.73
2017-12-22T10:02:55.885Z,16.37
2017-12-22T10:05:24.149Z,16.63
2017-12-22T10:07:51.574Z,17.40
2017-12-22T10:10:19.024Z,17.40
2017-12-22T10:12:46.429Z,18.17
2017-12-22T10:15:13.878Z,18.00
2017-12-22T10:17:41.302Z,18.10
2017-12-22T10:20:08.726Z,19.57
2017-12-22T10:22:36.161Z,17.53
2017-12-22T10:25:03.582Z,19.37
2017-12-22T10:27:30.992Z,17.43
2017-12-22T10:29:58.428Z,17.80
2017-12-22T10:32:25.837Z,17.83
2017-12-22T10:34:53.267Z,17.37
2017-12-22T10:37:20.718Z,16.20
2017-12-22T10:39:48.189Z,16.60
2017-12-22T10:42:15.633Z,17.10
2017-12-22T10:44:43.101Z,15.90
2017-12-22T10:47:10.503Z,16.47
2017-12-22T10:49:37.929Z,15.83
2017-12-22T10:52:05.369Z,15.17
2017-12-22T10:54:32.795Z,15.37
2017-12-22T10:57:00.245Z,14.47
2017-12-22T10:59:27.773Z,13.50
2017-12-22T11:01:55.181Z,16.07
2017-12-22T11:04:22.639Z,14.87
2017-12-22T11:06:50.078Z,15.30
2017-12-22T11:09:17.561Z,15.50
2017-12-22T11:11:44.989Z,15.83
2017-12-22T11:14:12.525Z,15.43
2017-12-22T11:16:39.962Z,14.83
2017-12-22T11:19:07.374Z,14.23
2017-12-22T11:21:34.841Z,14.20
2017-12-22T11:24:02.285Z,16.17
2017-12-22T11:26:29.685Z,15.17
2017-12-22T11:28:57.210Z,15.03
2017-12-22T11:31:24.625Z,14.80
2017-12-22T11:33:52.072Z,16.10
2017-12-22T11:36:19.506Z,16.43
2017-12-22T11:38:46.929Z,15.47
2017-12-22T11:41:14.369Z,16.97
2017-12-22T11:43:41.891Z,16.43
2017-12-22T11:46:09.350Z,16.80
2017-12-22T11:48:36.766Z,16.37
2017-12-22T11:51:04.242Z,16.17
2017-12-22T11:53:31.656Z,17.67
2017-12-22T11:55:59.064Z,18.70
2017-12-22T11:58:26.517Z,17.30
2017-12-22T12:00:53.964Z,16.60
2017-12-22T12:03:21.401Z,17.37
2017-12-22T12:05:48.845Z,18.17
2017-12-22T12:08:16.261Z,17.07
2017-12-22T12:10:43.673Z,18.27
2017-12-22T12:13:11.129Z,18.90
2017-12-22T12:15:38.614Z,18.40
2017-12-22T12:18:06.037Z,18.20
2017-12-22T12:20:33.513Z,18.63
2017-12-22T12:23:00.943Z,18.20
2017-12-22T12:25:28.373Z,19.47
2017-12-22T12:27:55.821Z,19.63
2017-12-22T12:30:23.242Z,18.77
2017-12-22T12:32:50.662Z,18.47
2017-12-22T12:35:18.102Z,18.40
2017-12-22T12:37:45.519Z,19.43
2017-12-22T12:40:12.975Z,19.23
2017-12-22T12:42:40.481Z,18.33
2017-12-22T12:45:07.931Z,17.80
2017-12-22T12:47:35.395Z,17.70
2017-12-22T12:50:02.861Z,18.20
2017-12-22T12:52:30.704Z,18.10
2017-12-22T12:54:58.145Z,17.97
2017-12-22T12:57:25.625Z,19.63
2017-12-22T12:59:53.049Z,21.00
2017-12-22T13:02:20.469Z,20.97
2017-12-22T13:04:47.963Z,22.30
2017-12-22T13:07:15.381Z,21.93
2017-12-22T13:09:42.806Z,21.80
2017-12-22T13:12:10.341Z,20.47
2017-12-22T13:14:37.773Z,21.57
2017-12-22T13:17:05.193Z,21.60
2017-12-22T13:19:32.625Z,23.40
2017-12-22T13:22:00.082Z,21.80
2017-12-22T13:24:27.523Z,20.83
2017-12-22T13:26:55.005Z,22.40
2017-12-22T13:29:22.421Z,23.37
2017-12-22T13:31:49.833Z,22.43
2017-12-22T13:34:17.306Z,24.13
2017-12-22T13:36:44.725Z,23.00
2017-12-22T13:39:12.146Z,21.97
2017-12-22T13:41:39.742Z,20.67
2017-12-22T13:44:07.140Z,21.70
2017-12-22T13:46:34.574Z,22.50
2017-12-22T13:49:02.921Z,24.20
2017-12-22T13:51:30.385Z,25.87
2017-12-22T13:53:57.809Z,27.33
2017-12-22T13:56:25.368Z,27.90
2017-12-22T13:58:52.817Z,27.37
2017-12-22T14:01:20.234Z,28.67
2017-12-22T14:03:47.669Z,28.83
2017-12-22T14:06:16.174Z,30.10
2017-12-22T14:08:43.601Z,30.90
2017-12-22T14:11:11.081Z,28.67
2017-12-22T14:13:38.514Z,28.80
2017-12-22T14:16:05.935Z,29.43
2017-12-22T14:18:33.424Z,30.50
2017-12-22T14:21:00.882Z,29.63
2017-12-22T14:23:28.383Z,28.40
2017-12-22T14:25:55.801Z,28.00
2017-12-22T14:28:23.261Z,29.13
2017-12-22T14:30:50.685Z,28.13
2017-12-22T14:33:18.122Z,29.97
2017-12-22T14:35:45.538Z,28.73
2017-12-22T14:38:12.945Z,27.87
2017-12-22T14:40:40.397Z,27.03
2017-12-22T14:43:07.806Z,26.40
2017-12-22T14:45:35.225Z,27.47
2017-12-22T14:48:02.792Z,29.07
2017-12-22T14:50:30.149Z,27.23
2017-12-22T14:52:57.561Z,24.43
2017-12-22T14:55:25.014Z,20.97
2017-12-22T14:57:52.429Z,19.37
2017-12-22T15:00:19.833Z,17.67
2017-12-22T15:02:47.257Z,18.60
2017-12-22T15:05:14.664Z,17.10
2017-12-22T15:07:42.077Z,15.67
2017-12-22T15:10:09.551Z,17.07
2017-12-22T15:12:36.946Z,16.40
2017-12-22T15:15:04.361Z,15.63
2017-12-22T15:17:31.805Z,16.13
2017-12-22T15:19:59.230Z,15.87
2017-12-22T15:22:27.313Z,16.63
2017-12-22T15:24:54.746Z,16.73
2017-12-22T15:27:22.209Z,16.10
2017-12-22T15:29:49.629Z,16.70
2017-12-22T15:32:17.050Z,17.33
2017-12-22T15:34:44.465Z,17.80
2017-12-22T15:37:11.878Z,16.20
2017-12-22T15:39:39.322Z,17.47
2017-12-22T15:42:06.725Z,17.50
2017-12-22T15:44:34.141Z,17.60
2017-12-22T15:47:01.569Z,15.73
2017-12-22T15:49:28.995Z,16.40
2017-12-22T15:51:56.403Z,16.60
2017-12-22T15:54:23.833Z,17.47
2017-12-22T15:56:51.751Z,16.83
2017-12-22T15:59:19.263Z,16.70
2017-12-22T16:01:46.686Z,16.87
2017-12-22T16:04:14.094Z,17.40
2017-12-22T16:06:41.513Z,15.43
2017-12-22T16:09:08.958Z,18.17
2017-12-22T16:11:36.370Z,23.93
2017-12-22T16:14:03.790Z,22.33
2017-12-22T16:16:31.213Z,20.60
2017-12-22T16:18:58.650Z,18.93
2017-12-22T16:21:26.062Z,20.30
2017-12-22T16:23:53.633Z,19.03
2017-12-22T16:26:21.039Z,18.80
2017-12-22T16:28:48.445Z,19.07
2017-12-22T16:31:15.904Z,18.57
2017-12-22T16:33:43.315Z,19.70
2017-12-22T16:36:10.729Z,21.47
2017-12-22T16:38:38.467Z,19.70
2017-12-22T16:41:05.876Z,20.23
2017-12-22T16:43:33.299Z,20.80
2017-12-22T16:46:00.717Z,20.07
2017-12-22T16:48:28.132Z,19.27
2017-12-22T16:50:55.561Z,20.50
2017-12-22T16:53:23.106Z,21.00
2017-12-22T16:55:50.516Z,21.83
2017-12-22T16:58:17.929Z,20.13
2017-12-22T17:00:45.363Z,21.37
2017-12-22T17:03:12.764Z,20.40
2017-12-22T17:05:40.213Z,21.07
2017-12-22T17:08:07.665Z,19.70
2017-12-22T17:10:35.089Z,19.00
2017-12-22T17:13:02.503Z,19.10
2017-12-22T17:15:29.925Z,19.80
2017-12-22T17:17:57.341Z,21.73
2017-12-22T17:20:24.787Z,20.67
2017-12-22T17:22:52.214Z,21.60
2017-12-22T17:25:19.624Z,23.20
2017-12-22T17:27:47.033Z,22.77
2017-12-22T17:30:14.456Z,21.73
2017-12-22T17:32:41.871Z,19.47
2017-12-22T17:35:09.284Z,21.30
2017-12-22T17:37:36.710Z,21.83
2017-12-22T17:40:04.133Z,22.00
2017-12-22T17:42:31.545Z,22.20
2017-12-22T17:44:58.973Z,23.13
2017-12-22T17:47:26.395Z,24.37
2017-12-22T17:49:53.840Z,24.30
2017-12-22T17:52:21.283Z,38.47
2017-12-22T17:54:48.660Z,32.03
2017-12-22T17:57:16.080Z,29.50
2017-12-22T17:59:43.577Z,27.77
2017-12-22T18:02:11.005Z,26.30
2017-12-22T18:04:38.412Z,24.23
2017-12-22T18:07:05.852Z,25.37
2017-12-22T18:09:33.273Z,23.90
2017-12-22T18:12:00.719Z,22.50
2017-12-22T18:14:28.199Z,23.23
2017-12-22T18:16:55.602Z,68.77
2017-12-22T18:19:23.014Z,20.90
2017-12-22T18:21:50.449Z,21.33
2017-12-22T18:24:17.855Z,23.73
2017-12-22T18:26:45.714Z,23.67
2017-12-22T18:29:16.535Z,24.00
2017-12-22T18:31:43.969Z,25.57
2017-12-22T18:34:11.401Z,24.93
2017-12-22T18:36:38.830Z,23.73
2017-12-22T18:39:06.245Z,22.90
2017-12-22T18:41:33.661Z,23.30
2017-12-22T18:44:01.078Z,21.27
2017-12-22T18:46:28.489Z,20.20
2017-12-22T18:48:55.897Z,23.67
2017-12-22T18:51:23.337Z,25.67
2017-12-22T18:53:50.784Z,28.40
2017-12-22T18:56:18.220Z,28.50
2017-12-22T18:58:45.661Z,26.10
2017-12-22T19:01:13.079Z,27.03
2017-12-22T19:03:40.497Z,26.50
2017-12-22T19:06:07.958Z,27.20
2017-12-22T19:08:35.422Z,26.17
2017-12-22T19:11:02.866Z,24.43
2017-12-22T19:13:30.329Z,25.60
2017-12-22T19:15:57.755Z,24.93
2017-12-22T19:18:25.161Z,23.00
2017-12-22T19:20:52.609Z,23.67
2017-12-22T19:23:20.049Z,21.43
2017-12-22T19:25:47.510Z,23.60
2017-12-22T19:28:14.946Z,22.50
2017-12-22T19:30:44.385Z,23.53
2017-12-22T19:33:11.820Z,26.07
2017-12-22T19:35:39.249Z,28.53
2017-12-22T19:38:06.698Z,26.20
2017-12-22T19:40:34.136Z,27.47
2017-12-22T19:43:01.575Z,26.27
2017-12-22T19:45:29.017Z,23.23
2017-12-22T19:47:56.438Z,23.13
2017-12-22T19:50:23.889Z,25.17
2017-12-22T19:52:51.293Z,28.40
2017-12-22T19:55:18.929Z,26.80
2017-12-22T19:57:46.375Z,25.80
2017-12-22T20:00:13.817Z,25.97
2017-12-22T20:02:41.230Z,26.17
2017-12-22T20:05:08.657Z,26.67
2017-12-22T20:07:36.097Z,25.63
2017-12-22T20:10:03.519Z,26.90
2017-12-22T20:12:30.949Z,26.50
2017-12-22T20:14:58.365Z,28.67
2017-12-22T20:17:25.781Z,28.53
2017-12-22T20:19:53.267Z,27.17
2017-12-22T20:22:20.675Z,32.90
2017-12-22T20:24:48.093Z,32.40
2017-12-22T20:27:15.577Z,30.60
2017-12-22T20:29:43.002Z,25.70
2017-12-22T20:32:10.421Z,32.63
2017-12-22T20:34:37.853Z,34.13
2017-12-22T20:37:05.261Z,28.60
2017-12-22T20:39:32.677Z,32.27
2017-12-22T20:42:00.113Z,29.43
2017-12-22T20:44:27.537Z,32.30
2017-12-22T20:46:54.945Z,25.73
2017-12-22T20:49:22.429Z,25.77
2017-12-22T20:51:49.838Z,27.90
2017-12-22T20:54:17.258Z,27.47
2017-12-22T20:56:44.677Z,25.60
2017-12-22T20:59:12.121Z,26.83
2017-12-22T21:01:39.566Z,24.33
2017-12-22T21:04:07.023Z,23.23
2017-12-22T21:06:34.447Z,25.57
2017-12-22T21:09:01.859Z,25.10
2017-12-22T21:11:29.304Z,25.60
2017-12-22T21:13:56.725Z,23.30
2017-12-22T21:16:24.153Z,29.13
2017-12-22T21:18:51.638Z,22.80
2017-12-22T21:21:19.061Z,28.47
2017-12-22T21:23:46.470Z,28.50
2017-12-22T21:26:13.939Z,27.10
2017-12-22T21:28:41.352Z,31.20
2017-12-22T21:31:08.798Z,28.33
2017-12-22T21:33:36.245Z,33.17
2017-12-22T21:36:03.656Z,28.77
2017-12-22T21:38:31.077Z,28.17
2017-12-22T21:40:58.550Z,28.70
2017-12-22T21:43:25.914Z,34.60
2017-12-22T21:45:53.333Z,36.03
2017-12-22T21:48:20.789Z,37.73
2017-12-22T21:50:48.210Z,33.43
2017-12-22T21:53:15.671Z,27.73
2017-12-22T21:55:43.193Z,34.93
2017-12-22T21:58:10.694Z,39.33
2017-12-22T22:00:38.121Z,33.83
2017-12-22T22:03:05.560Z,40.70
2017-12-22T22:05:32.989Z,45.20
2017-12-22T22:08:00.401Z,40.67
2017-12-22T22:10:27.857Z,34.57
2017-12-22T22:12:55.281Z,37.57
2017-12-22T22:15:22.713Z,42.50
2017-12-22T22:17:50.143Z,36.47
2017-12-22T22:20:17.566Z,40.80
2017-12-22T22:22:45.008Z,40.50
2017-12-22T22:25:12.430Z,58.13
2017-12-22T22:27:54.172Z,39.97
2017-12-22T22:30:21.685Z,36.00
2017-12-22T22:32:49.109Z,33.27
2017-12-22T22:35:16.533Z,30.43
2017-12-22T22:37:43.957Z,38.07
2017-12-22T22:40:11.380Z,29.10
2017-12-22T22:42:38.810Z,27.90
2017-12-22T22:45:06.287Z,31.20
2017-12-22T22:47:33.697Z,28.20
2017-12-22T22:50:01.105Z,26.23
2017-12-22T22:52:28.560Z,27.37
2017-12-22T22:54:55.974Z,29.83
2017-12-22T22:57:23.380Z,29.13
2017-12-22T22:59:50.844Z,31.17
2017-12-22T23:02:18.249Z,34.33
2017-12-22T23:04:45.759Z,28.53
2017-12-22T23:07:13.169Z,39.37
2017-12-22T23:09:40.588Z,26.37
2017-12-22T23:12:08.001Z,69.17
2017-12-22T23:14:35.460Z,32.07
2017-12-22T23:17:02.910Z,35.23
2017-12-22T23:19:30.321Z,45.03
2017-12-22T23:21:57.741Z,25.03
2017-12-22T23:24:25.156Z,26.70
2017-12-22T23:26:52.573Z,23.80
2017-12-22T23:29:20.021Z,29.67
2017-12-22T23:31:54.281Z,79.83
2017-12-22T23:34:21.741Z,26.30
2017-12-22T23:36:49.160Z,26.53
2017-12-22T23:39:16.602Z,27.37
2017-12-22T23:41:44.120Z,28.43
2017-12-22T23:44:11.545Z,27.87
2017-12-22T23:46:38.973Z,29.30
2017-12-22T23:49:06.401Z,29.17
2017-12-22T23:51:33.845Z,31.43
2017-12-22T23:54:01.261Z,38.10
2017-12-22T23:56:28.758Z,36.03
2017-12-22T23:58:56.166Z,37.73
